• Join FlightAware (Why Join?)
  • Login
  • US Flag 
Gobble Gobble! 
01:00AM EST


 

Airport Tracker/Info


-or-


 

Live Flight TrackerFlight Track Log ✈ LXJ444 ✈ 03-May-2013 ✈ KTKI - KCXO

Flight Track Log - Related Links

Times and Time Zones

All times are in EDT time to prevent confusion due to time zone crossing. See the LXJ444 flight status page for this flight to view local times or setup timezone preferences in your user account.

Time Position Orientation Groundspeed Altitude Reporting Facility
EDT Latitude Longitude Course Direction KTS MPH feet Rate Location/Type
12:47PM 33.1833 -96.5833 248° West 183 211 1,200  Level Dallas / Fort Worth TRACON
12:49PM 33.1667 -96.6333 248° West 260 299 4,200 2,940 Climbing Dallas / Fort Worth TRACON
12:50PM 33.0461 -96.6453 185° South 240 276 9,500 3,240 Climbing Fort Worth Center
12:51PM 32.9503 -96.6683 191° South 330 380 12,300 2,640 Climbing Fort Worth Center
12:52PM 32.8397 -96.6939 191° South 384 442 14,800 3,000 Climbing Fort Worth Center
12:53PM 32.7208 -96.7194 190° South 431 496 18,300 3,000 Climbing Fort Worth Center
12:54PM 32.6042 -96.7450 190° South 436 502 20,900 1,320 Climbing Fort Worth Center
12:55PM 32.4872 -96.7731 191° South 430 495 21,000  Climbing Fort Worth Center
12:56PM 32.3683 -96.7986 190° South 430 495 21,000  Level Fort Worth Center
12:57PM 32.2453 -96.8017 181° South 435 501 21,000  Level Fort Worth Center
12:58PM 32.1344 -96.7583 162° South 440 506 21,000  Level Fort Worth Center
12:59PM 32.0025 -96.7103 163° South 451 519 21,000  Level Fort Worth Center
01:00PM 31.8811 -96.6622 161° South 461 531 21,000  Level Fort Worth Center
01:01PM 31.7597 -96.6119 161° South 466 536 21,000  Level Fort Worth Center
01:03PM 31.5392 -96.5222 161° South 461 531 21,000  Level Houston Center
01:04PM 31.4169 -96.4744 162° South 458 527 21,000  Level Houston Center
01:05PM 31.2936 -96.4283 162° South 458 527 21,000  Level Houston Center
01:06PM 31.1711 -96.3758 160° South 465 535 21,000 -900 Level Houston Center
01:07PM 31.0606 -96.2936 147° Southeast 466 536 19,200 -2,040 Descending Houston Center
01:08PM 30.9481 -96.2147 149° Southeast 463 533 16,900 -2,340 Descending Houston Center
01:09PM 30.8414 -96.1383 148° Southeast 449 517 14,400 -2,460 Descending Houston Center
01:10PM 30.7453 -96.0708 149° Southeast 407 468 11,900 -2,460 Descending Houston Center
01:11PM 30.6678 -96.0153 148° Southeast 365 420 10,100 -2,460 Descending Houston Center
01:11PM 30.6442 -95.9978 147° Southeast 369 425 9,400 -900 Descending Houston Center
01:12PM 30.5644 -95.9422 149° Southeast 337 388 8,900 -240 Descending Houston Center
01:13PM 30.4822 -95.8839 149° Southeast 332 382 9,000 -300 Climbing Houston Center
01:14PM 30.4050 -95.8153 143° Southeast 337 388 8,300 -1,140 Descending Houston Center
01:15PM 30.3469 -95.7519 137° Southeast 316 364 6,800 -1,860 Descending Houston Center
01:16PM 30.2981 -95.6731 126° Southeast 284 327 4,700 -2,100 Descending Houston Center
01:17PM 30.2769 -95.5786 104° East 270 311 2,400 -2,100 Descending Houston Center